createdAt,value
2018-08-04T00:02:39.164Z,22.80
2018-08-04T00:07:23.579Z,22.70
2018-08-04T00:12:07.907Z,22.60
2018-08-04T00:16:52.358Z,22.40
2018-08-04T00:21:37.028Z,22.20
2018-08-04T00:26:21.395Z,22.10
2018-08-04T00:31:05.880Z,21.90
2018-08-04T00:35:50.282Z,21.80
2018-08-04T00:40:34.982Z,21.70
2018-08-04T00:45:19.724Z,21.60
2018-08-04T00:50:04.683Z,21.50
2018-08-04T00:54:49.138Z,21.50
2018-08-04T00:59:33.428Z,21.50
2018-08-04T01:04:17.828Z,21.60
2018-08-04T01:09:02.302Z,21.70
2018-08-04T01:13:46.831Z,21.80
2018-08-04T01:18:31.224Z,21.90
2018-08-04T01:23:15.530Z,22.00
2018-08-04T01:27:59.946Z,22.20
2018-08-04T01:32:44.352Z,22.30
2018-08-04T01:37:28.866Z,22.20
2018-08-04T01:42:13.313Z,22.10
2018-08-04T01:46:57.710Z,21.90
2018-08-04T01:51:42.080Z,21.70
2018-08-04T01:56:26.692Z,21.60
2018-08-04T02:01:11.104Z,21.50
2018-08-04T02:05:55.770Z,21.60
2018-08-04T02:10:40.326Z,21.50
2018-08-04T02:15:24.952Z,21.40
2018-08-04T02:20:09.284Z,21.20
2018-08-04T02:24:54.110Z,21.20
2018-08-04T02:29:38.555Z,21.20
2018-08-04T02:34:22.919Z,21.20
2018-08-04T02:39:08.383Z,21.10
2018-08-04T02:43:52.771Z,21.10
2018-08-04T02:48:37.253Z,21.00
2018-08-04T02:53:21.648Z,20.90
2018-08-04T02:58:06.158Z,20.80
2018-08-04T03:02:50.579Z,20.70
2018-08-04T03:07:35.079Z,20.70
2018-08-04T03:12:19.510Z,20.80
2018-08-04T03:17:03.911Z,20.80
2018-08-04T03:21:48.291Z,20.80
2018-08-04T03:26:32.782Z,20.70
2018-08-04T03:31:17.239Z,20.80
2018-08-04T03:36:01.559Z,20.70
2018-08-04T03:40:46.066Z,20.70
2018-08-04T03:45:30.462Z,20.60
2018-08-04T03:50:14.912Z,20.60
2018-08-04T03:54:59.356Z,20.60
2018-08-04T03:59:43.889Z,20.60
2018-08-04T04:04:28.198Z,20.70
2018-08-04T04:09:12.569Z,21.00
2018-08-04T04:13:57.095Z,21.20
2018-08-04T04:18:41.481Z,21.20
2018-08-04T04:23:25.951Z,21.20
2018-08-04T04:28:10.450Z,21.30
2018-08-04T04:32:54.902Z,21.40
2018-08-04T04:37:39.286Z,21.50
2018-08-04T04:42:23.752Z,21.50
2018-08-04T04:47:08.273Z,21.70
2018-08-04T04:51:52.723Z,21.80
2018-08-04T04:56:37.238Z,22.00
2018-08-04T05:01:21.725Z,22.30
2018-08-04T05:06:06.078Z,22.50
2018-08-04T05:10:50.542Z,22.80
2018-08-04T05:15:34.956Z,23.00
2018-08-04T05:20:19.348Z,23.20
2018-08-04T05:25:04.134Z,23.30
2018-08-04T05:29:48.594Z,23.60
2018-08-04T05:34:33.030Z,23.80
2018-08-04T05:39:17.558Z,24.10
2018-08-04T05:44:02.027Z,24.30
2018-08-04T05:48:46.766Z,24.40
2018-08-04T05:53:31.225Z,24.90
2018-08-04T05:58:15.676Z,25.30
2018-08-04T06:03:00.238Z,25.90
2018-08-04T06:07:44.796Z,26.40
2018-08-04T06:12:29.177Z,26.70
2018-08-04T06:17:13.555Z,27.00
2018-08-04T06:21:58.130Z,27.30
2018-08-04T06:26:42.624Z,27.50
2018-08-04T06:31:27.113Z,28.00
2018-08-04T06:36:11.538Z,27.90
2018-08-04T06:40:56.066Z,28.00
2018-08-04T06:45:40.617Z,28.30
2018-08-04T06:50:25.224Z,28.80
2018-08-04T06:55:09.919Z,29.20
2018-08-04T06:59:54.396Z,29.50
2018-08-04T07:04:38.856Z,29.80
2018-08-04T07:09:23.342Z,29.50
2018-08-04T07:14:08.647Z,29.80
2018-08-04T07:18:53.097Z,30.00
2018-08-04T07:23:37.639Z,30.30
2018-08-04T07:28:22.100Z,30.70
2018-08-04T07:33:07.021Z,30.90
2018-08-04T07:37:51.466Z,31.70
2018-08-04T07:42:35.918Z,31.70
2018-08-04T07:47:20.301Z,32.50
2018-08-04T07:52:04.693Z,33.20
2018-08-04T07:56:49.128Z,33.70
2018-08-04T08:01:33.589Z,34.00
2018-08-04T08:06:17.978Z,34.40
2018-08-04T08:11:02.433Z,34.80
2018-08-04T08:15:46.882Z,35.10
2018-08-04T08:20:31.273Z,35.00
2018-08-04T08:25:15.785Z,35.00
2018-08-04T08:30:00.400Z,35.20
2018-08-04T08:34:45.051Z,35.40
2018-08-04T08:39:29.566Z,35.50
2018-08-04T08:44:13.992Z,35.80
2018-08-04T08:48:58.536Z,36.30
2018-08-04T08:53:42.950Z,36.30
2018-08-04T08:58:27.707Z,36.00
2018-08-04T09:03:12.109Z,36.20
2018-08-04T09:07:56.537Z,36.30
2018-08-04T09:12:41.120Z,36.50
2018-08-04T09:17:25.602Z,36.50
2018-08-04T09:22:10.043Z,36.40
2018-08-04T09:26:54.474Z,36.60
2018-08-04T09:31:39.064Z,37.00
2018-08-04T09:36:23.637Z,36.90
2018-08-04T09:41:08.022Z,37.00
2018-08-04T09:45:52.449Z,37.10
2018-08-04T09:50:36.830Z,37.60
2018-08-04T09:55:21.316Z,38.20
2018-08-04T10:00:08.594Z,38.30
2018-08-04T10:04:53.514Z,37.10
2018-08-04T10:09:38.055Z,37.60
2018-08-04T10:14:22.576Z,37.40
2018-08-04T10:19:07.171Z,36.50
2018-08-04T10:23:52.135Z,35.70
2018-08-04T10:28:36.800Z,35.20
2018-08-04T10:33:21.353Z,34.90
2018-08-04T10:38:05.883Z,34.70
2018-08-04T10:42:50.582Z,35.10
2018-08-04T10:47:35.402Z,34.60
2018-08-04T10:52:20.147Z,34.50
2018-08-04T10:57:04.593Z,35.10
2018-08-04T11:01:49.140Z,35.60
2018-08-04T11:06:33.659Z,36.50
2018-08-04T11:11:18.251Z,37.40
2018-08-04T11:16:03.197Z,37.40
2018-08-04T11:20:47.928Z,37.20
2018-08-04T11:25:32.321Z,36.90
2018-08-04T11:30:16.863Z,36.70
2018-08-04T11:35:03.758Z,36.90
2018-08-04T11:39:48.772Z,36.10
2018-08-04T11:44:33.364Z,34.50
2018-08-04T11:49:17.705Z,33.70
2018-08-04T11:54:02.496Z,33.30
2018-08-04T11:58:46.929Z,33.00
2018-08-04T12:03:31.868Z,32.60
2018-08-04T12:08:16.530Z,32.10
2018-08-04T12:13:01.294Z,32.00
2018-08-04T12:17:46.672Z,32.30
2018-08-04T12:22:31.220Z,33.70
2018-08-04T12:27:15.785Z,34.90
2018-08-04T12:32:00.261Z,35.60
2018-08-04T12:36:44.810Z,36.00
2018-08-04T12:41:29.493Z,36.40
2018-08-04T12:46:13.919Z,36.30
2018-08-04T12:51:00.238Z,37.60
2018-08-04T12:55:44.690Z,37.70
2018-08-04T13:00:29.027Z,36.60
2018-08-04T13:05:13.364Z,37.10
2018-08-04T13:09:57.945Z,38.20
2018-08-04T13:14:42.697Z,37.70
2018-08-04T13:19:27.246Z,37.20
2018-08-04T13:24:11.917Z,37.10
2018-08-04T13:28:56.325Z,37.60
2018-08-04T13:33:40.786Z,37.40
2018-08-04T13:38:25.340Z,37.90
2018-08-04T13:43:09.756Z,37.80
2018-08-04T13:47:54.147Z,37.40
2018-08-04T13:52:38.532Z,37.70
2018-08-04T13:57:22.986Z,37.30
2018-08-04T14:02:07.661Z,37.10
2018-08-04T14:06:52.417Z,37.10
2018-08-04T14:11:37.187Z,36.80
2018-08-04T14:16:21.728Z,36.40
2018-08-04T14:21:06.262Z,37.10
2018-08-04T14:25:50.994Z,38.30
2018-08-04T14:30:35.389Z,38.70
2018-08-04T14:35:19.804Z,38.90
2018-08-04T14:40:04.440Z,38.50
2018-08-04T14:44:48.908Z,36.50
2018-08-04T14:49:33.606Z,35.70
2018-08-04T14:54:18.306Z,35.30
2018-08-04T14:59:02.820Z,34.60
2018-08-04T15:03:47.253Z,33.60
2018-08-04T15:08:31.867Z,32.90
2018-08-04T15:13:16.219Z,32.10
2018-08-04T15:18:00.649Z,31.80
2018-08-04T15:22:45.389Z,31.50
2018-08-04T15:27:29.869Z,31.50
2018-08-04T15:32:14.345Z,31.60
2018-08-04T15:36:58.762Z,31.70
2018-08-04T15:41:43.286Z,31.50
2018-08-04T15:46:27.752Z,31.20
2018-08-04T15:51:12.265Z,30.90
2018-08-04T15:55:56.884Z,30.40
2018-08-04T16:00:41.473Z,29.60
2018-08-04T16:05:25.877Z,28.20
2018-08-04T16:10:10.314Z,27.20
2018-08-04T16:14:54.742Z,27.20
2018-08-04T16:19:39.230Z,27.80
2018-08-04T16:24:23.861Z,29.10
2018-08-04T16:29:08.320Z,29.90
2018-08-04T16:33:53.260Z,30.00
2018-08-04T16:38:37.692Z,29.90
2018-08-04T16:43:22.235Z,29.60
2018-08-04T16:48:06.717Z,29.60
2018-08-04T16:52:51.488Z,30.30
2018-08-04T16:57:35.952Z,30.60
2018-08-04T17:02:20.488Z,30.70
2018-08-04T17:07:05.082Z,31.20
2018-08-04T17:11:49.830Z,31.30
2018-08-04T17:16:34.462Z,31.70
2018-08-04T17:21:20.948Z,31.60
2018-08-04T17:31:40.996Z,30.60
2018-08-04T17:36:25.343Z,29.50
2018-08-04T17:41:09.811Z,28.60
2018-08-04T17:45:54.323Z,27.80
2018-08-04T17:50:39.031Z,27.30
2018-08-04T17:55:23.985Z,27.10
2018-08-04T18:00:08.557Z,27.00
2018-08-04T18:04:53.061Z,26.90
2018-08-04T18:09:37.646Z,26.80
2018-08-04T18:14:22.132Z,26.70
2018-08-04T18:19:11.498Z,26.60
2018-08-04T18:23:55.866Z,26.40
2018-08-04T18:28:40.329Z,26.20
2018-08-04T18:33:24.826Z,26.10
2018-08-04T18:38:09.424Z,26.20
2018-08-04T18:42:54.163Z,26.20
2018-08-04T18:47:38.633Z,26.00
2018-08-04T18:52:23.324Z,26.00
2018-08-04T18:57:07.974Z,25.80
2018-08-04T19:01:52.562Z,25.70
2018-08-04T19:06:37.327Z,25.60
2018-08-04T19:11:22.050Z,25.50
2018-08-04T19:16:06.987Z,25.40
2018-08-04T19:20:51.557Z,25.30
2018-08-04T19:25:36.241Z,25.20
2018-08-04T19:30:21.837Z,25.10
2018-08-04T19:35:06.499Z,25.00
2018-08-04T19:39:51.471Z,24.80
2018-08-04T19:44:54.835Z,24.60
2018-08-04T19:49:39.911Z,24.50
2018-08-04T19:54:24.532Z,24.40
2018-08-04T19:59:09.214Z,24.40
2018-08-04T20:03:53.968Z,24.20
2018-08-04T20:08:38.700Z,24.00
2018-08-04T20:13:23.432Z,23.90
2018-08-04T20:18:08.235Z,23.90
2018-08-04T20:22:52.802Z,23.90
2018-08-04T20:27:37.565Z,23.90
2018-08-04T20:32:23.094Z,23.90
2018-08-04T20:37:07.693Z,23.90
2018-08-04T20:41:52.240Z,23.90
2018-08-04T20:46:37.269Z,23.90
2018-08-04T20:51:21.864Z,23.90
2018-08-04T20:56:06.383Z,23.80
2018-08-04T21:01:02.310Z,23.70
2018-08-04T21:05:46.891Z,23.70
2018-08-04T21:10:31.612Z,23.70
2018-08-04T21:15:16.193Z,23.60
2018-08-04T21:20:00.684Z,23.50
2018-08-04T21:24:45.378Z,23.50
2018-08-04T21:29:30.142Z,23.40
2018-08-04T21:34:15.011Z,23.10
2018-08-04T21:38:59.931Z,22.60
2018-08-04T21:43:44.725Z,22.40
2018-08-04T21:48:29.663Z,22.50
2018-08-04T21:53:14.235Z,22.70
2018-08-04T21:57:59.034Z,23.00
2018-08-04T22:02:54.501Z,23.10
2018-08-04T22:07:50.468Z,23.20
2018-08-04T22:12:35.622Z,23.40
2018-08-04T22:17:20.058Z,23.10
2018-08-04T22:22:04.445Z,22.70
2018-08-04T22:26:48.828Z,22.40
2018-08-04T22:31:34.626Z,22.20
2018-08-04T22:36:19.089Z,22.10
2018-08-04T22:41:03.409Z,21.80
2018-08-04T22:46:02.222Z,21.70
2018-08-04T22:50:47.037Z,21.80
2018-08-04T22:55:32.092Z,21.80
2018-08-04T23:00:16.747Z,21.80
2018-08-04T23:05:01.419Z,21.80
2018-08-04T23:09:46.134Z,21.70
2018-08-04T23:14:30.787Z,21.70
2018-08-04T23:19:15.747Z,21.90
2018-08-04T23:24:00.709Z,21.90
2018-08-04T23:28:45.517Z,21.90
2018-08-04T23:33:30.387Z,21.80
2018-08-04T23:38:15.064Z,21.90
2018-08-04T23:43:00.076Z,21.90
2018-08-04T23:47:45.115Z,21.90
2018-08-04T23:52:30.199Z,22.20
2018-08-04T23:57:14.967Z,22.20
